sensor_id;sensor_type;location;lat;lon;timestamp;temperature;humidity
38456;DHT22;24237;50.106;20.014;2023-12-29T00:01:56;9.60;13.30
38456;DHT22;24237;50.106;20.014;2023-12-29T00:04:22;9.60;99.90
38456;DHT22;24237;50.106;20.014;2023-12-29T00:06:47;9.40;33.40
38456;DHT22;24237;50.106;20.014;2023-12-29T00:09:17;9.50;99.90
38456;DHT22;24237;50.106;20.014;2023-12-29T00:11:49;9.60;67.40
38456;DHT22;24237;50.106;20.014;2023-12-29T00:14:15;9.50;99.90
38456;DHT22;24237;50.106;20.014;2023-12-29T00:16:41;9.50;99.90
38456;DHT22;24237;50.106;20.014;2023-12-29T00:19:07;9.50;10.00
38456;DHT22;24237;50.106;20.014;2023-12-29T00:21:32;9.50;93.10
38456;DHT22;24237;50.106;20.014;2023-12-29T00:23:58;9.80;99.90
38456;DHT22;24237;50.106;20.014;2023-12-29T00:26:24;9.60;99.90
38456;DHT22;24237;50.106;20.014;2023-12-29T00:28:50;9.70;99.90
38456;DHT22;24237;50.106;20.014;2023-12-29T00:31:16;10.00;99.90
38456;DHT22;24237;50.106;20.014;2023-12-29T00:33:45;10.30;15.40
38456;DHT22;24237;50.106;20.014;2023-12-29T00:36:18;10.10;1.40
38456;DHT22;24237;50.106;20.014;2023-12-29T00:38:44;9.90;99.90
38456;DHT22;24237;50.106;20.014;2023-12-29T00:41:09;9.80;1.00
38456;DHT22;24237;50.106;20.014;2023-12-29T00:43:36;10.20;99.90
38456;DHT22;24237;50.106;20.014;2023-12-29T00:46:03;9.90;99.90
38456;DHT22;24237;50.106;20.014;2023-12-29T00:48:29;10.30;99.90
38456;DHT22;24237;50.106;20.014;2023-12-29T00:50:55;10.30;99.90
38456;DHT22;24237;50.106;20.014;2023-12-29T00:53:20;10.30;99.90
38456;DHT22;24237;50.106;20.014;2023-12-29T00:55:46;10.20;93.90
38456;DHT22;24237;50.106;20.014;2023-12-29T00:58:12;10.30;31.40
38456;DHT22;24237;50.106;20.014;2023-12-29T01:00:37;10.30;98.00
38456;DHT22;24237;50.106;20.014;2023-12-29T01:03:04;10.20;99.90
38456;DHT22;24237;50.106;20.014;2023-12-29T01:05:30;10.30;60.60
38456;DHT22;24237;50.106;20.014;2023-12-29T01:07:55;10.00;99.90
38456;DHT22;24237;50.106;20.014;2023-12-29T01:10:21;10.00;99.90
38456;DHT22;24237;50.106;20.014;2023-12-29T01:12:47;10.00;99.90
38456;DHT22;24237;50.106;20.014;2023-12-29T01:15:13;9.80;99.90
38456;DHT22;24237;50.106;20.014;2023-12-29T01:17:39;9.80;99.90
38456;DHT22;24237;50.106;20.014;2023-12-29T01:20:05;10.00;99.90
38456;DHT22;24237;50.106;20.014;2023-12-29T01:22:31;9.80;1.00
38456;DHT22;24237;50.106;20.014;2023-12-29T01:24:59;10.10;99.90
38456;DHT22;24237;50.106;20.014;2023-12-29T01:27:25;10.00;99.90
38456;DHT22;24237;50.106;20.014;2023-12-29T01:29:51;9.90;99.90
38456;DHT22;24237;50.106;20.014;2023-12-29T01:32:18;10.00;99.90
38456;DHT22;24237;50.106;20.014;2023-12-29T01:34:44;9.90;99.90
38456;DHT22;24237;50.106;20.014;2023-12-29T01:37:10;9.70;99.90
38456;DHT22;24237;50.106;20.014;2023-12-29T01:39:35;9.60;1.00
38456;DHT22;24237;50.106;20.014;2023-12-29T01:42:01;9.50;99.90
38456;DHT22;24237;50.106;20.014;2023-12-29T01:44:28;9.50;99.90
38456;DHT22;24237;50.106;20.014;2023-12-29T01:46:56;9.40;99.90
38456;DHT22;24237;50.106;20.014;2023-12-29T01:49:24;9.60;44.50
38456;DHT22;24237;50.106;20.014;2023-12-29T01:51:54;9.50;99.90
38456;DHT22;24237;50.106;20.014;2023-12-29T01:54:22;9.30;99.90
38456;DHT22;24237;50.106;20.014;2023-12-29T01:56:50;9.20;99.90
38456;DHT22;24237;50.106;20.014;2023-12-29T01:59:16;9.10;99.90
38456;DHT22;24237;50.106;20.014;2023-12-29T02:01:43;9.30;1.00
38456;DHT22;24237;50.106;20.014;2023-12-29T02:04:12;9.30;93.70
38456;DHT22;24237;50.106;20.014;2023-12-29T02:06:39;9.40;1.00
38456;DHT22;24237;50.106;20.014;2023-12-29T02:09:05;9.30;12.70
38456;DHT22;24237;50.106;20.014;2023-12-29T02:11:51;9.40;1.00
38456;DHT22;24237;50.106;20.014;2023-12-29T02:14:18;9.40;1.00
38456;DHT22;24237;50.106;20.014;2023-12-29T02:16:56;9.40;8.10
38456;DHT22;24237;50.106;20.014;2023-12-29T02:19:45;9.40;1.00
38456;DHT22;24237;50.106;20.014;2023-12-29T02:22:12;9.60;1.00
38456;DHT22;24237;50.106;20.014;2023-12-29T02:24:39;9.80;99.90
38456;DHT22;24237;50.106;20.014;2023-12-29T02:29:33;9.60;1.00
38456;DHT22;24237;50.106;20.014;2023-12-29T02:32:00;9.60;99.90
38456;DHT22;24237;50.106;20.014;2023-12-29T02:34:30;9.70;99.90
38456;DHT22;24237;50.106;20.014;2023-12-29T02:36:58;9.80;99.90
38456;DHT22;24237;50.106;20.014;2023-12-29T02:39:24;9.90;99.90
38456;DHT22;24237;50.106;20.014;2023-12-29T02:41:50;9.60;1.00
38456;DHT22;24237;50.106;20.014;2023-12-29T02:44:16;9.30;99.90
38456;DHT22;24237;50.106;20.014;2023-12-29T02:46:41;9.20;1.00
38456;DHT22;24237;50.106;20.014;2023-12-29T02:49:07;9.50;99.90
38456;DHT22;24237;50.106;20.014;2023-12-29T02:51:38;9.70;1.00
38456;DHT22;24237;50.106;20.014;2023-12-29T02:54:24;9.80;1.00
38456;DHT22;24237;50.106;20.014;2023-12-29T02:56:50;9.80;1.00
38456;DHT22;24237;50.106;20.014;2023-12-29T02:59:15;9.70;1.00
38456;DHT22;24237;50.106;20.014;2023-12-29T03:01:41;9.70;92.30
38456;DHT22;24237;50.106;20.014;2023-12-29T03:04:07;9.40;97.00
38456;DHT22;24237;50.106;20.014;2023-12-29T03:06:33;9.50;1.00
38456;DHT22;24237;50.106;20.014;2023-12-29T03:08:59;9.30;99.90
38456;DHT22;24237;50.106;20.014;2023-12-29T03:11:24;9.30;1.00
38456;DHT22;24237;50.106;20.014;2023-12-29T03:13:50;9.30;99.90
38456;DHT22;24237;50.106;20.014;2023-12-29T03:16:16;9.10;1.00
38456;DHT22;24237;50.106;20.014;2023-12-29T03:18:41;9.20;99.90
38456;DHT22;24237;50.106;20.014;2023-12-29T03:21:07;8.80;16.70
38456;DHT22;24237;50.106;20.014;2023-12-29T03:23:33;9.10;99.90
38456;DHT22;24237;50.106;20.014;2023-12-29T03:25:59;9.00;42.00
38456;DHT22;24237;50.106;20.014;2023-12-29T03:28:25;9.10;99.90
38456;DHT22;24237;50.106;20.014;2023-12-29T03:31:11;9.10;47.30
38456;DHT22;24237;50.106;20.014;2023-12-29T03:33:36;9.00;99.90
38456;DHT22;24237;50.106;20.014;2023-12-29T03:36:02;8.90;99.90
38456;DHT22;24237;50.106;20.014;2023-12-29T03:38:28;8.80;1.00
38456;DHT22;24237;50.106;20.014;2023-12-29T03:40:54;8.70;1.00
38456;DHT22;24237;50.106;20.014;2023-12-29T03:43:19;8.70;1.00
38456;DHT22;24237;50.106;20.014;2023-12-29T03:45:45;8.80;99.90
38456;DHT22;24237;50.106;20.014;2023-12-29T03:48:11;8.90;99.90
38456;DHT22;24237;50.106;20.014;2023-12-29T03:50:37;8.90;1.00
38456;DHT22;24237;50.106;20.014;2023-12-29T03:53:03;9.10;26.70
38456;DHT22;24237;50.106;20.014;2023-12-29T03:55:48;8.90;1.00
38456;DHT22;24237;50.106;20.014;2023-12-29T03:58:14;8.60;99.90
38456;DHT22;24237;50.106;20.014;2023-12-29T04:00:40;8.30;99.90
38456;DHT22;24237;50.106;20.014;2023-12-29T04:03:07;8.30;99.90
38456;DHT22;24237;50.106;20.014;2023-12-29T04:05:32;8.20;99.90
38456;DHT22;24237;50.106;20.014;2023-12-29T04:07:58;8.20;1.00
38456;DHT22;24237;50.106;20.014;2023-12-29T04:10:24;8.30;1.00
38456;DHT22;24237;50.106;20.014;2023-12-29T04:12:49;8.50;99.90
38456;DHT22;24237;50.106;20.014;2023-12-29T04:15:15;8.60;99.90
38456;DHT22;24237;50.106;20.014;2023-12-29T04:17:42;8.50;99.90
38456;DHT22;24237;50.106;20.014;2023-12-29T04:20:08;8.50;99.90
38456;DHT22;24237;50.106;20.014;2023-12-29T04:22:34;8.50;1.00
38456;DHT22;24237;50.106;20.014;2023-12-29T04:24:59;8.60;99.90
38456;DHT22;24237;50.106;20.014;2023-12-29T04:27:25;8.60;99.90
38456;DHT22;24237;50.106;20.014;2023-12-29T04:29:51;8.60;1.00
38456;DHT22;24237;50.106;20.014;2023-12-29T04:32:17;8.60;29.50
38456;DHT22;24237;50.106;20.014;2023-12-29T04:34:42;8.30;1.00
38456;DHT22;24237;50.106;20.014;2023-12-29T04:37:08;8.40;1.00
38456;DHT22;24237;50.106;20.014;2023-12-29T04:39:34;8.60;99.90
38456;DHT22;24237;50.106;20.014;2023-12-29T04:41:59;8.80;1.00
38456;DHT22;24237;50.106;20.014;2023-12-29T04:44:25;8.60;1.00
38456;DHT22;24237;50.106;20.014;2023-12-29T04:46:51;8.50;99.90
38456;DHT22;24237;50.106;20.014;2023-12-29T04:49:16;8.40;20.40
38456;DHT22;24237;50.106;20.014;2023-12-29T04:51:42;8.70;99.90
38456;DHT22;24237;50.106;20.014;2023-12-29T04:54:09;8.40;7.60
38456;DHT22;24237;50.106;20.014;2023-12-29T04:56:34;8.70;1.00
38456;DHT22;24237;50.106;20.014;2023-12-29T04:59:00;8.70;99.90
38456;DHT22;24237;50.106;20.014;2023-12-29T05:01:26;8.70;1.00
38456;DHT22;24237;50.106;20.014;2023-12-29T05:03:51;8.70;1.00
38456;DHT22;24237;50.106;20.014;2023-12-29T05:06:17;8.60;99.90
38456;DHT22;24237;50.106;20.014;2023-12-29T05:08:43;8.50;1.00
38456;DHT22;24237;50.106;20.014;2023-12-29T05:11:08;8.50;19.60
38456;DHT22;24237;50.106;20.014;2023-12-29T05:13:34;8.70;99.90
38456;DHT22;24237;50.106;20.014;2023-12-29T05:16:00;8.70;99.90
38456;DHT22;24237;50.106;20.014;2023-12-29T05:18:26;8.70;99.90
38456;DHT22;24237;50.106;20.014;2023-12-29T05:20:55;8.70;99.90
38456;DHT22;24237;50.106;20.014;2023-12-29T05:23:20;8.90;99.90
38456;DHT22;24237;50.106;20.014;2023-12-29T05:25:46;8.90;94.00
38456;DHT22;24237;50.106;20.014;2023-12-29T05:28:12;8.90;66.80
38456;DHT22;24237;50.106;20.014;2023-12-29T05:30:37;9.00;95.50
38456;DHT22;24237;50.106;20.014;2023-12-29T05:33:03;9.40;1.00
38456;DHT22;24237;50.106;20.014;2023-12-29T05:35:29;9.10;99.90
38456;DHT22;24237;50.106;20.014;2023-12-29T05:37:54;9.00;1.00
38456;DHT22;24237;50.106;20.014;2023-12-29T05:40:40;8.90;1.00
38456;DHT22;24237;50.106;20.014;2023-12-29T05:43:06;8.90;1.00
38456;DHT22;24237;50.106;20.014;2023-12-29T05:45:31;9.00;1.00
38456;DHT22;24237;50.106;20.014;2023-12-29T05:47:57;9.10;99.90
38456;DHT22;24237;50.106;20.014;2023-12-29T05:50:23;9.20;99.90
38456;DHT22;24237;50.106;20.014;2023-12-29T05:52:48;9.20;90.00
38456;DHT22;24237;50.106;20.014;2023-12-29T05:55:17;9.00;87.50
38456;DHT22;24237;50.106;20.014;2023-12-29T05:57:44;9.00;62.20
38456;DHT22;24237;50.106;20.014;2023-12-29T06:00:11;8.90;99.90
38456;DHT22;24237;50.106;20.014;2023-12-29T06:02:41;9.10;99.90
38456;DHT22;24237;50.106;20.014;2023-12-29T06:05:07;9.20;99.90
38456;DHT22;24237;50.106;20.014;2023-12-29T06:07:33;9.10;99.90
38456;DHT22;24237;50.106;20.014;2023-12-29T06:09:59;9.20;99.90
38456;DHT22;24237;50.106;20.014;2023-12-29T06:12:25;9.20;99.90
38456;DHT22;24237;50.106;20.014;2023-12-29T06:14:51;9.40;1.30
38456;DHT22;24237;50.106;20.014;2023-12-29T06:17:16;9.60;99.90
38456;DHT22;24237;50.106;20.014;2023-12-29T06:19:42;9.80;99.90
38456;DHT22;24237;50.106;20.014;2023-12-29T06:22:08;9.80;99.90
38456;DHT22;24237;50.106;20.014;2023-12-29T06:24:40;10.00;99.90
38456;DHT22;24237;50.106;20.014;2023-12-29T06:27:08;9.80;99.90
38456;DHT22;24237;50.106;20.014;2023-12-29T06:29:34;9.60;99.90
38456;DHT22;24237;50.106;20.014;2023-12-29T06:32:00;9.60;99.90
38456;DHT22;24237;50.106;20.014;2023-12-29T06:34:26;9.80;99.90
38456;DHT22;24237;50.106;20.014;2023-12-29T06:36:52;9.70;99.90
38456;DHT22;24237;50.106;20.014;2023-12-29T06:39:18;9.60;99.90
38456;DHT22;24237;50.106;20.014;2023-12-29T06:41:43;9.70;99.90
38456;DHT22;24237;50.106;20.014;2023-12-29T06:44:09;9.50;99.90
38456;DHT22;24237;50.106;20.014;2023-12-29T06:46:38;9.60;99.90
38456;DHT22;24237;50.106;20.014;2023-12-29T06:49:07;10.20;99.90
38456;DHT22;24237;50.106;20.014;2023-12-29T06:51:33;9.90;99.90
38456;DHT22;24237;50.106;20.014;2023-12-29T06:54:00;9.80;99.90
38456;DHT22;24237;50.106;20.014;2023-12-29T06:56:25;9.80;99.90
38456;DHT22;24237;50.106;20.014;2023-12-29T06:58:51;9.80;95.00
38456;DHT22;24237;50.106;20.014;2023-12-29T07:01:17;9.90;48.50
38456;DHT22;24237;50.106;20.014;2023-12-29T07:03:43;9.80;97.80
38456;DHT22;24237;50.106;20.014;2023-12-29T07:06:13;9.80;94.80
38456;DHT22;24237;50.106;20.014;2023-12-29T07:08:39;10.00;1.00
38456;DHT22;24237;50.106;20.014;2023-12-29T07:11:09;10.30;99.90
38456;DHT22;24237;50.106;20.014;2023-12-29T07:13:36;10.30;99.90
38456;DHT22;24237;50.106;20.014;2023-12-29T07:16:02;10.50;99.90
38456;DHT22;24237;50.106;20.014;2023-12-29T07:18:28;10.80;66.50
38456;DHT22;24237;50.106;20.014;2023-12-29T07:20:53;10.80;1.00
38456;DHT22;24237;50.106;20.014;2023-12-29T07:23:40;10.90;1.00
38456;DHT22;24237;50.106;20.014;2023-12-29T07:26:06;11.10;1.00
38456;DHT22;24237;50.106;20.014;2023-12-29T07:28:32;11.20;99.90
38456;DHT22;24237;50.106;20.014;2023-12-29T07:30:57;11.20;99.90
38456;DHT22;24237;50.106;20.014;2023-12-29T07:33:23;11.00;99.90
38456;DHT22;24237;50.106;20.014;2023-12-29T07:35:50;10.70;1.00
38456;DHT22;24237;50.106;20.014;2023-12-29T07:38:16;10.80;87.30
38456;DHT22;24237;50.106;20.014;2023-12-29T07:40:42;10.90;99.90
38456;DHT22;24237;50.106;20.014;2023-12-29T07:43:08;11.00;47.70
38456;DHT22;24237;50.106;20.014;2023-12-29T07:45:34;11.20;23.20
38456;DHT22;24237;50.106;20.014;2023-12-29T07:48:01;11.50;1.00
38456;DHT22;24237;50.106;20.014;2023-12-29T07:50:27;11.80;1.00
38456;DHT22;24237;50.106;20.014;2023-12-29T07:52:53;11.90;1.00
38456;DHT22;24237;50.106;20.014;2023-12-29T07:55:18;12.10;1.00
38456;DHT22;24237;50.106;20.014;2023-12-29T07:57:45;12.20;99.90
38456;DHT22;24237;50.106;20.014;2023-12-29T08:00:14;12.20;99.90
38456;DHT22;24237;50.106;20.014;2023-12-29T08:02:40;12.00;99.90
38456;DHT22;24237;50.106;20.014;2023-12-29T08:05:09;12.00;1.00
38456;DHT22;24237;50.106;20.014;2023-12-29T08:07:38;12.10;99.90
38456;DHT22;24237;50.106;20.014;2023-12-29T08:10:05;12.20;1.00
38456;DHT22;24237;50.106;20.014;2023-12-29T08:12:31;12.20;99.90
38456;DHT22;24237;50.106;20.014;2023-12-29T08:14:59;12.40;99.90
38456;DHT22;24237;50.106;20.014;2023-12-29T08:17:25;12.50;99.90
38456;DHT22;24237;50.106;20.014;2023-12-29T08:19:51;12.40;99.90
38456;DHT22;24237;50.106;20.014;2023-12-29T08:22:19;12.30;99.90
38456;DHT22;24237;50.106;20.014;2023-12-29T08:24:44;12.40;99.90
38456;DHT22;24237;50.106;20.014;2023-12-29T08:27:12;12.60;99.90
38456;DHT22;24237;50.106;20.014;2023-12-29T08:29:38;12.60;99.90
38456;DHT22;24237;50.106;20.014;2023-12-29T08:32:04;12.60;99.90
38456;DHT22;24237;50.106;20.014;2023-12-29T08:34:30;12.60;99.90
38456;DHT22;24237;50.106;20.014;2023-12-29T08:36:55;12.50;99.90
38456;DHT22;24237;50.106;20.014;2023-12-29T08:39:22;12.50;99.90
38456;DHT22;24237;50.106;20.014;2023-12-29T08:41:48;12.70;99.90
38456;DHT22;24237;50.106;20.014;2023-12-29T08:44:15;12.80;99.90
38456;DHT22;24237;50.106;20.014;2023-12-29T08:46:41;12.80;99.90
38456;DHT22;24237;50.106;20.014;2023-12-29T08:49:07;13.00;99.90
38456;DHT22;24237;50.106;20.014;2023-12-29T08:51:33;13.20;99.90
38456;DHT22;24237;50.106;20.014;2023-12-29T08:53:59;13.30;99.90
38456;DHT22;24237;50.106;20.014;2023-12-29T08:56:28;13.30;96.70
38456;DHT22;24237;50.106;20.014;2023-12-29T08:58:54;13.40;60.10
38456;DHT22;24237;50.106;20.014;2023-12-29T09:01:20;13.50;15.90
38456;DHT22;24237;50.106;20.014;2023-12-29T09:03:46;13.50;1.00
38456;DHT22;24237;50.106;20.014;2023-12-29T09:06:11;13.40;1.00
38456;DHT22;24237;50.106;20.014;2023-12-29T09:08:37;13.50;1.00
38456;DHT22;24237;50.106;20.014;2023-12-29T09:11:04;13.50;1.00
38456;DHT22;24237;50.106;20.014;2023-12-29T09:13:30;13.50;1.00
38456;DHT22;24237;50.106;20.014;2023-12-29T09:15:55;13.60;1.00
38456;DHT22;24237;50.106;20.014;2023-12-29T09:18:21;13.80;1.00
38456;DHT22;24237;50.106;20.014;2023-12-29T09:20:47;13.90;99.90
38456;DHT22;24237;50.106;20.014;2023-12-29T09:23:13;13.90;99.90
38456;DHT22;24237;50.106;20.014;2023-12-29T09:25:39;14.00;99.90
38456;DHT22;24237;50.106;20.014;2023-12-29T09:28:05;14.00;99.90
38456;DHT22;24237;50.106;20.014;2023-12-29T09:30:31;14.10;99.90
38456;DHT22;24237;50.106;20.014;2023-12-29T09:32:56;14.20;99.90
38456;DHT22;24237;50.106;20.014;2023-12-29T09:35:22;14.00;99.90
38456;DHT22;24237;50.106;20.014;2023-12-29T09:37:48;13.90;99.90
38456;DHT22;24237;50.106;20.014;2023-12-29T09:40:17;13.60;99.90
38456;DHT22;24237;50.106;20.014;2023-12-29T09:42:44;13.50;99.90
38456;DHT22;24237;50.106;20.014;2023-12-29T09:45:11;13.70;99.90
38456;DHT22;24237;50.106;20.014;2023-12-29T09:47:42;13.80;96.10
38456;DHT22;24237;50.106;20.014;2023-12-29T09:50:12;13.90;85.60
38456;DHT22;24237;50.106;20.014;2023-12-29T09:52:39;13.80;36.40
38456;DHT22;24237;50.106;20.014;2023-12-29T09:55:08;13.70;57.90
38456;DHT22;24237;50.106;20.014;2023-12-29T09:57:38;13.70;51.20
38456;DHT22;24237;50.106;20.014;2023-12-29T10:00:05;13.70;44.10
38456;DHT22;24237;50.106;20.014;2023-12-29T10:02:32;13.80;27.40
38456;DHT22;24237;50.106;20.014;2023-12-29T10:05:17;13.80;24.50
38456;DHT22;24237;50.106;20.014;2023-12-29T10:07:44;13.90;1.00
38456;DHT22;24237;50.106;20.014;2023-12-29T10:10:15;13.80;1.00
38456;DHT22;24237;50.106;20.014;2023-12-29T10:12:43;13.90;1.00
38456;DHT22;24237;50.106;20.014;2023-12-29T10:18:37;14.00;1.00
38456;DHT22;24237;50.106;20.014;2023-12-29T10:21:08;14.10;1.00
38456;DHT22;24237;50.106;20.014;2023-12-29T10:24:08;14.10;1.00
38456;DHT22;24237;50.106;20.014;2023-12-29T10:26:35;14.00;1.00
38456;DHT22;24237;50.106;20.014;2023-12-29T10:29:02;13.90;1.00
38456;DHT22;24237;50.106;20.014;2023-12-29T10:31:28;13.80;1.00
38456;DHT22;24237;50.106;20.014;2023-12-29T10:34:23;13.70;1.00
38456;DHT22;24237;50.106;20.014;2023-12-29T10:36:56;14.00;1.00
38456;DHT22;24237;50.106;20.014;2023-12-29T10:39:22;14.20;1.00
38456;DHT22;24237;50.106;20.014;2023-12-29T10:41:49;14.10;1.00
38456;DHT22;24237;50.106;20.014;2023-12-29T10:44:16;13.90;1.00
38456;DHT22;24237;50.106;20.014;2023-12-29T10:46:42;14.10;99.90
38456;DHT22;24237;50.106;20.014;2023-12-29T10:49:13;14.20;99.90
38456;DHT22;24237;50.106;20.014;2023-12-29T10:51:39;14.40;99.90
38456;DHT22;24237;50.106;20.014;2023-12-29T10:54:06;14.40;99.90
38456;DHT22;24237;50.106;20.014;2023-12-29T10:56:32;14.50;99.90
38456;DHT22;24237;50.106;20.014;2023-12-29T11:01:29;14.30;99.90
38456;DHT22;24237;50.106;20.014;2023-12-29T11:06:26;14.20;99.90
38456;DHT22;24237;50.106;20.014;2023-12-29T11:08:53;14.40;99.90
38456;DHT22;24237;50.106;20.014;2023-12-29T11:11:19;14.70;99.90
38456;DHT22;24237;50.106;20.014;2023-12-29T11:13:46;14.90;99.90
38456;DHT22;24237;50.106;20.014;2023-12-29T11:16:13;14.60;99.90
38456;DHT22;24237;50.106;20.014;2023-12-29T11:18:41;14.50;99.90
38456;DHT22;24237;50.106;20.014;2023-12-29T11:21:08;14.50;99.90
38456;DHT22;24237;50.106;20.014;2023-12-29T11:23:35;14.50;99.90
38456;DHT22;24237;50.106;20.014;2023-12-29T11:26:02;14.60;99.90
38456;DHT22;24237;50.106;20.014;2023-12-29T11:28:48;14.70;99.90
38456;DHT22;24237;50.106;20.014;2023-12-29T11:31:16;14.60;99.90
38456;DHT22;24237;50.106;20.014;2023-12-29T11:33:47;14.60;99.90
38456;DHT22;24237;50.106;20.014;2023-12-29T11:36:20;14.50;99.90
38456;DHT22;24237;50.106;20.014;2023-12-29T11:39:02;14.60;99.90
38456;DHT22;24237;50.106;20.014;2023-12-29T11:44:03;14.60;99.90
38456;DHT22;24237;50.106;20.014;2023-12-29T11:46:38;14.60;99.90
38456;DHT22;24237;50.106;20.014;2023-12-29T11:49:23;14.90;99.90
38456;DHT22;24237;50.106;20.014;2023-12-29T11:51:50;15.00;99.90
38456;DHT22;24237;50.106;20.014;2023-12-29T11:54:23;15.00;99.90
38456;DHT22;24237;50.106;20.014;2023-12-29T11:56:49;15.00;96.90
38456;DHT22;24237;50.106;20.014;2023-12-29T11:59:22;15.10;99.30
38456;DHT22;24237;50.106;20.014;2023-12-29T12:01:54;15.20;90.70
38456;DHT22;24237;50.106;20.014;2023-12-29T12:04:40;15.10;91.90
38456;DHT22;24237;50.106;20.014;2023-12-29T12:07:07;14.90;95.00
38456;DHT22;24237;50.106;20.014;2023-12-29T12:09:34;14.90;90.10
38456;DHT22;24237;50.106;20.014;2023-12-29T12:12:04;14.50;99.90
38456;DHT22;24237;50.106;20.014;2023-12-29T12:14:51;14.40;99.90
38456;DHT22;24237;50.106;20.014;2023-12-29T12:17:33;14.60;99.90
38456;DHT22;24237;50.106;20.014;2023-12-29T12:20:18;14.50;99.90
38456;DHT22;24237;50.106;20.014;2023-12-29T12:22:44;14.40;99.90
38456;DHT22;24237;50.106;20.014;2023-12-29T12:25:12;14.20;99.90
38456;DHT22;24237;50.106;20.014;2023-12-29T12:27:38;14.20;99.90
38456;DHT22;24237;50.106;20.014;2023-12-29T12:30:05;14.30;99.90
38456;DHT22;24237;50.106;20.014;2023-12-29T12:32:31;14.10;99.90
38456;DHT22;24237;50.106;20.014;2023-12-29T12:34:57;14.20;99.90
38456;DHT22;24237;50.106;20.014;2023-12-29T12:37:25;14.20;99.90
38456;DHT22;24237;50.106;20.014;2023-12-29T12:39:51;14.20;99.90
38456;DHT22;24237;50.106;20.014;2023-12-29T12:42:19;14.30;99.90
38456;DHT22;24237;50.106;20.014;2023-12-29T12:44:52;14.30;97.10
38456;DHT22;24237;50.106;20.014;2023-12-29T12:47:27;13.90;56.10
38456;DHT22;24237;50.106;20.014;2023-12-29T12:49:56;13.80;66.70
38456;DHT22;24237;50.106;20.014;2023-12-29T12:52:22;13.80;54.30
38456;DHT22;24237;50.106;20.014;2023-12-29T12:54:48;13.80;52.90
38456;DHT22;24237;50.106;20.014;2023-12-29T12:57:19;13.80;32.00
38456;DHT22;24237;50.106;20.014;2023-12-29T12:59:45;13.60;26.50
38456;DHT22;24237;50.106;20.014;2023-12-29T13:02:10;13.70;24.20
38456;DHT22;24237;50.106;20.014;2023-12-29T13:04:40;13.90;22.50
38456;DHT22;24237;50.106;20.014;2023-12-29T13:07:06;14.00;9.00
38456;DHT22;24237;50.106;20.014;2023-12-29T13:09:31;14.10;4.30
38456;DHT22;24237;50.106;20.014;2023-12-29T13:12:13;13.90;6.70
38456;DHT22;24237;50.106;20.014;2023-12-29T13:14:42;13.80;1.00
38456;DHT22;24237;50.106;20.014;2023-12-29T13:17:09;13.80;1.70
38456;DHT22;24237;50.106;20.014;2023-12-29T13:19:39;13.60;6.40
38456;DHT22;24237;50.106;20.014;2023-12-29T13:22:07;13.70;8.10
38456;DHT22;24237;50.106;20.014;2023-12-29T13:24:33;13.70;4.90
38456;DHT22;24237;50.106;20.014;2023-12-29T13:27:05;13.80;9.00
38456;DHT22;24237;50.106;20.014;2023-12-29T13:29:32;13.90;12.50
38456;DHT22;24237;50.106;20.014;2023-12-29T13:34:47;13.70;3.40
38456;DHT22;24237;50.106;20.014;2023-12-29T13:40:28;13.90;1.00
38456;DHT22;24237;50.106;20.014;2023-12-29T13:43:02;13.90;1.00
38456;DHT22;24237;50.106;20.014;2023-12-29T13:45:29;14.10;1.00
38456;DHT22;24237;50.106;20.014;2023-12-29T13:47:56;14.20;1.00
38456;DHT22;24237;50.106;20.014;2023-12-29T13:50:23;14.30;1.00
38456;DHT22;24237;50.106;20.014;2023-12-29T13:52:49;14.30;1.00
38456;DHT22;24237;50.106;20.014;2023-12-29T13:55:24;14.30;1.00
38456;DHT22;24237;50.106;20.014;2023-12-29T13:57:50;14.30;1.00
38456;DHT22;24237;50.106;20.014;2023-12-29T14:00:20;14.10;1.00
38456;DHT22;24237;50.106;20.014;2023-12-29T14:05:27;13.90;1.00
38456;DHT22;24237;50.106;20.014;2023-12-29T14:08:17;13.50;1.00
38456;DHT22;24237;50.106;20.014;2023-12-29T14:10:40;13.50;1.00
38456;DHT22;24237;50.106;20.014;2023-12-29T14:13:14;13.40;1.00
38456;DHT22;24237;50.106;20.014;2023-12-29T14:15:41;13.40;1.00
38456;DHT22;24237;50.106;20.014;2023-12-29T14:18:25;13.30;10.00
38456;DHT22;24237;50.106;20.014;2023-12-29T14:20:56;13.30;10.70
38456;DHT22;24237;50.106;20.014;2023-12-29T14:23:22;13.40;12.30
38456;DHT22;24237;50.106;20.014;2023-12-29T14:25:49;13.50;8.70
38456;DHT22;24237;50.106;20.014;2023-12-29T14:28:16;13.50;3.80
38456;DHT22;24237;50.106;20.014;2023-12-29T14:30:42;13.30;9.90
38456;DHT22;24237;50.106;20.014;2023-12-29T14:33:08;13.30;10.70
38456;DHT22;24237;50.106;20.014;2023-12-29T14:35:34;13.10;16.00
38456;DHT22;24237;50.106;20.014;2023-12-29T14:38:01;13.00;24.80
38456;DHT22;24237;50.106;20.014;2023-12-29T14:40:27;12.90;26.40
38456;DHT22;24237;50.106;20.014;2023-12-29T14:42:53;12.80;33.00
38456;DHT22;24237;50.106;20.014;2023-12-29T14:45:18;12.80;36.50
38456;DHT22;24237;50.106;20.014;2023-12-29T14:47:46;12.80;34.90
38456;DHT22;24237;50.106;20.014;2023-12-29T14:50:13;12.90;41.60
38456;DHT22;24237;50.106;20.014;2023-12-29T14:52:39;13.00;38.40
38456;DHT22;24237;50.106;20.014;2023-12-29T14:55:05;12.90;45.00
38456;DHT22;24237;50.106;20.014;2023-12-29T14:57:30;13.00;37.80
38456;DHT22;24237;50.106;20.014;2023-12-29T14:59:56;13.00;39.90
38456;DHT22;24237;50.106;20.014;2023-12-29T15:02:22;12.80;45.60
38456;DHT22;24237;50.106;20.014;2023-12-29T15:04:48;12.80;49.80
38456;DHT22;24237;50.106;20.014;2023-12-29T15:07:16;12.90;50.00
38456;DHT22;24237;50.106;20.014;2023-12-29T15:09:45;12.80;42.60
38456;DHT22;24237;50.106;20.014;2023-12-29T15:12:11;12.80;49.60
38456;DHT22;24237;50.106;20.014;2023-12-29T15:14:37;12.70;40.70
38456;DHT22;24237;50.106;20.014;2023-12-29T15:17:02;12.80;42.60
38456;DHT22;24237;50.106;20.014;2023-12-29T15:19:28;12.70;43.30
38456;DHT22;24237;50.106;20.014;2023-12-29T15:21:54;12.50;55.70
38456;DHT22;24237;50.106;20.014;2023-12-29T15:24:20;12.70;51.00
38456;DHT22;24237;50.106;20.014;2023-12-29T15:26:46;12.90;42.70
38456;DHT22;24237;50.106;20.014;2023-12-29T15:29:14;13.00;35.10
38456;DHT22;24237;50.106;20.014;2023-12-29T15:31:43;13.00;36.20
38456;DHT22;24237;50.106;20.014;2023-12-29T15:34:12;12.90;35.30
38456;DHT22;24237;50.106;20.014;2023-12-29T15:36:38;12.80;40.10
38456;DHT22;24237;50.106;20.014;2023-12-29T15:39:04;12.80;42.20
38456;DHT22;24237;50.106;20.014;2023-12-29T15:41:33;12.70;43.00
38456;DHT22;24237;50.106;20.014;2023-12-29T15:43:59;12.70;44.70
38456;DHT22;24237;50.106;20.014;2023-12-29T15:46:25;12.40;53.90
38456;DHT22;24237;50.106;20.014;2023-12-29T15:48:51;12.50;54.30
38456;DHT22;24237;50.106;20.014;2023-12-29T15:51:17;12.50;51.70